createdAt,value
2022-11-27T00:01:20.159Z,38.23
2022-11-27T00:03:48.206Z,36.00
2022-11-27T00:06:20.425Z,33.27
2022-11-27T00:08:48.636Z,31.60
2022-11-27T00:11:21.301Z,35.57
2022-11-27T00:13:49.912Z,35.70
2022-11-27T00:16:18.677Z,36.57
2022-11-27T00:18:46.966Z,35.53
2022-11-27T00:21:19.122Z,34.20
2022-11-27T00:23:47.039Z,31.90
2022-11-27T00:26:14.907Z,35.27
2022-11-27T00:28:43.019Z,35.10
2022-11-27T00:31:15.363Z,36.90
2022-11-27T00:33:43.668Z,34.90
2022-11-27T00:36:12.564Z,34.30
2022-11-27T00:38:42.002Z,32.27
2022-11-27T00:41:11.327Z,33.50
2022-11-27T00:43:44.475Z,27.97
2022-11-27T00:46:13.136Z,25.23
2022-11-27T00:48:41.096Z,28.00
2022-11-27T00:51:10.705Z,29.97
2022-11-27T00:53:38.587Z,29.87
2022-11-27T00:56:08.979Z,26.70
2022-11-27T00:58:37.166Z,25.07
2022-11-27T01:01:07.860Z,26.43
2022-11-27T01:03:36.285Z,31.73
2022-11-27T01:06:05.084Z,26.30
2022-11-27T01:08:33.726Z,25.43
2022-11-27T01:11:02.460Z,28.93
2022-11-27T01:13:34.120Z,24.17
2022-11-27T01:16:02.842Z,27.93
2022-11-27T01:18:31.202Z,28.83
2022-11-27T01:20:59.342Z,23.80
2022-11-27T01:23:27.518Z,30.23
2022-11-27T01:25:55.489Z,26.73
2022-11-27T01:28:25.104Z,29.13
2022-11-27T01:30:55.079Z,29.40
2022-11-27T01:33:23.019Z,26.50
2022-11-27T01:35:56.565Z,25.40
2022-11-27T01:38:25.683Z,27.73
2022-11-27T01:40:58.993Z,25.63
2022-11-27T01:43:40.850Z,24.83
2022-11-27T01:46:26.662Z,21.57
2022-11-27T01:48:57.082Z,20.30
2022-11-27T01:51:25.606Z,23.00
2022-11-27T01:53:55.109Z,25.77
2022-11-27T01:56:25.055Z,28.00
2022-11-27T01:58:53.619Z,29.17
2022-11-27T02:01:24.502Z,24.70
2022-11-27T02:03:52.514Z,28.57
2022-11-27T02:06:20.568Z,23.20
2022-11-27T02:08:48.624Z,21.77
2022-11-27T02:11:26.373Z,22.17
2022-11-27T02:14:00.749Z,23.57
2022-11-27T02:16:37.924Z,24.43
2022-11-27T02:19:16.438Z,22.63
2022-11-27T02:21:54.058Z,20.97
2022-11-27T02:24:43.439Z,22.57
2022-11-27T02:27:37.968Z,23.13
2022-11-27T02:30:08.653Z,22.80
2022-11-27T02:32:41.312Z,22.07
2022-11-27T02:35:15.976Z,21.53
2022-11-27T02:37:49.456Z,24.00
2022-11-27T02:40:22.979Z,23.53
2022-11-27T02:42:54.650Z,25.60
2022-11-27T02:45:30.302Z,22.53
2022-11-27T02:47:58.965Z,24.73
2022-11-27T02:50:31.047Z,25.00
2022-11-27T02:53:03.102Z,23.80
2022-11-27T02:55:34.329Z,25.20
2022-11-27T02:58:04.937Z,21.87
2022-11-27T03:00:36.323Z,24.57
2022-11-27T03:03:08.102Z,20.83
2022-11-27T03:05:41.026Z,20.70
2022-11-27T03:08:15.402Z,22.57
2022-11-27T03:10:52.595Z,26.20
2022-11-27T03:13:20.989Z,22.10
2022-11-27T03:16:01.333Z,23.13
2022-11-27T03:18:37.416Z,24.87
2022-11-27T03:21:11.813Z,25.33
2022-11-27T03:23:39.894Z,19.90
2022-11-27T03:26:07.818Z,20.80
2022-11-27T03:28:36.462Z,18.90
2022-11-27T03:31:06.365Z,19.23
2022-11-27T03:33:34.418Z,23.07
2022-11-27T03:36:02.302Z,18.83
2022-11-27T03:38:30.284Z,17.83
2022-11-27T03:41:06.218Z,18.70
2022-11-27T03:43:41.487Z,16.63
2022-11-27T03:46:21.493Z,19.90
2022-11-27T03:48:57.627Z,23.30
2022-11-27T03:51:35.880Z,20.53
2022-11-27T03:54:12.276Z,19.13
2022-11-27T03:56:44.838Z,17.70
2022-11-27T03:59:17.984Z,17.37
2022-11-27T04:01:47.561Z,18.10
2022-11-27T04:04:15.772Z,17.17
2022-11-27T04:06:43.724Z,21.97
2022-11-27T04:09:11.907Z,19.03
2022-11-27T04:11:39.817Z,21.03
2022-11-27T04:14:07.976Z,19.30
2022-11-27T04:16:36.193Z,24.23
2022-11-27T04:19:05.513Z,22.90
2022-11-27T04:21:33.500Z,21.27
2022-11-27T04:24:01.804Z,23.87
2022-11-27T04:26:29.633Z,24.27
2022-11-27T04:28:57.491Z,21.27
2022-11-27T04:31:25.608Z,19.17
2022-11-27T04:33:53.490Z,21.27
2022-11-27T04:36:22.721Z,20.83
2022-11-27T04:38:50.901Z,21.07
2022-11-27T04:41:19.001Z,19.93
2022-11-27T04:43:46.876Z,23.90
2022-11-27T04:46:15.224Z,17.33
2022-11-27T04:48:43.133Z,20.43
2022-11-27T04:51:11.548Z,19.83
2022-11-27T04:53:41.099Z,21.40
2022-11-27T04:56:09.263Z,20.23
2022-11-27T04:58:37.173Z,20.63
2022-11-27T05:01:05.124Z,21.90
2022-11-27T05:03:33.111Z,21.93
2022-11-27T05:06:00.962Z,23.33
2022-11-27T05:08:31.816Z,21.63
2022-11-27T05:11:04.288Z,23.43
2022-11-27T05:13:32.519Z,24.33
2022-11-27T05:16:00.730Z,26.17
2022-11-27T05:18:28.896Z,24.87
2022-11-27T05:21:01.130Z,26.13
2022-11-27T05:23:29.405Z,22.63
2022-11-27T05:25:57.845Z,27.73
2022-11-27T05:28:27.494Z,23.20
2022-11-27T05:30:55.658Z,26.40
2022-11-27T05:33:23.530Z,22.17
2022-11-27T05:35:51.465Z,25.00
2022-11-27T05:38:19.623Z,26.93
2022-11-27T05:40:47.410Z,24.97
2022-11-27T05:43:15.595Z,28.67
2022-11-27T05:45:44.824Z,26.13
2022-11-27T05:48:12.656Z,24.20
2022-11-27T05:50:40.540Z,25.77
2022-11-27T05:53:08.488Z,26.23
2022-11-27T05:55:36.427Z,26.37
2022-11-27T05:58:04.531Z,26.77
2022-11-27T06:00:32.394Z,25.83
2022-11-27T06:03:01.820Z,25.13
2022-11-27T06:05:30.152Z,22.80
2022-11-27T06:07:58.094Z,22.37
2022-11-27T06:10:26.094Z,22.73
2022-11-27T06:12:54.265Z,22.47
2022-11-27T06:15:22.111Z,22.07
2022-11-27T06:17:50.099Z,23.77
2022-11-27T06:20:20.475Z,23.17
2022-11-27T06:22:48.498Z,23.47
2022-11-27T06:25:16.474Z,22.77
2022-11-27T06:27:44.537Z,22.90
2022-11-27T06:30:13.584Z,21.47
2022-11-27T06:32:41.623Z,25.97
2022-11-27T06:35:10.511Z,22.93
2022-11-27T06:37:39.797Z,23.63
2022-11-27T06:40:09.053Z,22.47
2022-11-27T06:42:36.959Z,21.90
2022-11-27T06:45:05.369Z,21.57
2022-11-27T06:47:33.341Z,23.90
2022-11-27T06:50:01.337Z,22.70
2022-11-27T06:52:31.949Z,25.27
2022-11-27T06:55:02.866Z,25.33
2022-11-27T06:57:30.655Z,25.43
2022-11-27T06:59:58.519Z,23.00
2022-11-27T07:02:26.565Z,22.70
2022-11-27T07:04:54.453Z,21.77
2022-11-27T07:07:22.380Z,23.03
2022-11-27T07:09:50.643Z,22.37
2022-11-27T07:12:20.171Z,21.67
2022-11-27T07:14:48.057Z,21.70
2022-11-27T07:17:15.966Z,21.53
2022-11-27T07:19:43.834Z,23.73
2022-11-27T07:22:11.766Z,21.93
2022-11-27T07:24:39.932Z,21.43
2022-11-27T07:27:08.630Z,23.73
2022-11-27T07:29:37.809Z,26.00
2022-11-27T07:32:05.865Z,22.67
2022-11-27T07:34:33.766Z,21.77
2022-11-27T07:37:01.720Z,23.47
2022-11-27T07:40:00.373Z,21.93
2022-11-27T07:45:09.223Z,21.27
2022-11-27T07:47:37.422Z,23.53
2022-11-27T07:50:07.367Z,23.10
2022-11-27T07:52:41.041Z,20.27
2022-11-27T07:55:10.691Z,20.23
2022-11-27T07:57:38.658Z,24.67
2022-11-27T08:00:09.624Z,21.73
2022-11-27T08:02:37.477Z,21.47
2022-11-27T08:05:10.982Z,20.87
2022-11-27T08:07:40.640Z,21.17
2022-11-27T08:10:09.852Z,22.37
2022-11-27T08:12:37.800Z,20.60
2022-11-27T08:15:06.358Z,22.30
2022-11-27T08:17:35.760Z,23.20
2022-11-27T08:20:03.990Z,18.13
2022-11-27T08:22:32.050Z,21.47
2022-11-27T08:24:59.997Z,20.07
2022-11-27T08:27:28.016Z,19.83
2022-11-27T08:29:55.869Z,19.97
2022-11-27T08:32:23.905Z,17.47
2022-11-27T08:34:53.214Z,18.90
2022-11-27T08:37:22.029Z,19.87
2022-11-27T08:39:49.989Z,17.20
2022-11-27T08:42:17.960Z,17.50
2022-11-27T08:44:45.770Z,19.73
2022-11-27T08:47:15.572Z,17.57
2022-11-27T08:49:46.276Z,16.53
2022-11-27T08:52:15.840Z,16.07
2022-11-27T08:54:43.742Z,17.20
2022-11-27T08:57:11.568Z,18.03
2022-11-27T08:59:39.867Z,17.30
2022-11-27T09:02:07.739Z,16.23
2022-11-27T09:04:35.640Z,19.30
2022-11-27T09:07:03.710Z,15.87
2022-11-27T09:09:33.000Z,15.77
2022-11-27T09:12:01.065Z,17.13
2022-11-27T09:14:29.060Z,14.57
2022-11-27T09:16:56.959Z,16.97
2022-11-27T09:19:25.995Z,15.30
2022-11-27T09:21:56.714Z,16.57
2022-11-27T09:24:24.919Z,14.63
2022-11-27T09:26:54.407Z,12.07
2022-11-27T09:29:22.836Z,14.43
2022-11-27T09:31:51.964Z,16.03
2022-11-27T09:34:20.363Z,16.60
2022-11-27T09:36:48.944Z,16.37
2022-11-27T09:39:18.748Z,15.27
2022-11-27T09:41:50.631Z,14.80
2022-11-27T09:44:28.035Z,16.17
2022-11-27T09:46:57.895Z,14.77
2022-11-27T09:49:31.125Z,16.93
2022-11-27T09:52:04.462Z,13.40
2022-11-27T09:54:38.668Z,15.67
2022-11-27T09:57:07.868Z,14.17
2022-11-27T09:59:42.738Z,17.37
2022-11-27T10:02:18.280Z,14.00
2022-11-27T10:05:12.131Z,14.57
2022-11-27T10:07:46.202Z,15.10
2022-11-27T10:10:30.073Z,15.23
2022-11-27T10:13:04.043Z,14.97
2022-11-27T10:15:43.601Z,17.33
2022-11-27T10:18:17.843Z,14.53
2022-11-27T10:20:51.276Z,15.20
2022-11-27T10:23:28.599Z,15.30
2022-11-27T10:26:02.274Z,14.00
2022-11-27T10:28:38.910Z,14.73
2022-11-27T10:31:13.827Z,12.93
2022-11-27T10:33:47.183Z,14.93
2022-11-27T10:36:16.326Z,14.13
2022-11-27T10:38:45.607Z,13.13
2022-11-27T10:41:41.958Z,16.40
2022-11-27T10:44:29.277Z,17.30
2022-11-27T10:47:03.189Z,13.97
2022-11-27T10:49:31.499Z,15.30
2022-11-27T10:51:59.337Z,17.13
2022-11-27T10:54:30.344Z,16.40
2022-11-27T10:57:09.661Z,13.53
2022-11-27T10:59:44.859Z,14.43
2022-11-27T11:02:29.712Z,13.87
2022-11-27T11:05:24.074Z,14.90
2022-11-27T11:07:56.463Z,13.73
2022-11-27T11:10:29.783Z,15.97
2022-11-27T11:13:15.413Z,15.50
2022-11-27T11:16:02.262Z,15.90
2022-11-27T11:18:33.898Z,14.73
2022-11-27T11:21:05.365Z,14.50
2022-11-27T11:23:35.323Z,13.33
2022-11-27T11:26:08.202Z,15.83
2022-11-27T11:28:47.566Z,14.67
2022-11-27T11:31:20.508Z,14.70
2022-11-27T11:33:53.797Z,14.70
2022-11-27T11:36:21.882Z,13.47
2022-11-27T11:38:50.773Z,14.23
2022-11-27T11:41:19.141Z,16.17
2022-11-27T11:43:59.392Z,13.93
2022-11-27T11:46:30.001Z,15.63
2022-11-27T11:49:02.138Z,15.77
2022-11-27T11:52:06.019Z,13.30
2022-11-27T11:54:45.184Z,13.77
2022-11-27T11:57:32.435Z,14.17
2022-11-27T12:00:05.317Z,20.17
2022-11-27T12:02:43.496Z,14.47
2022-11-27T12:05:21.739Z,13.27
2022-11-27T12:08:07.971Z,12.17
2022-11-27T12:10:45.870Z,14.93
2022-11-27T12:13:31.699Z,16.17
2022-11-27T12:16:07.757Z,17.20
2022-11-27T12:18:52.912Z,12.87
2022-11-27T12:21:31.610Z,18.30
2022-11-27T12:24:15.930Z,12.57
2022-11-27T12:26:57.627Z,12.03
2022-11-27T12:29:53.961Z,12.27
2022-11-27T12:32:36.179Z,15.30
2022-11-27T12:35:20.755Z,13.77
2022-11-27T12:38:01.522Z,12.90
2022-11-27T12:40:40.970Z,15.87
2022-11-27T12:43:21.733Z,11.70
2022-11-27T12:45:56.973Z,14.17
2022-11-27T12:48:31.335Z,14.50
2022-11-27T12:51:03.216Z,14.87
2022-11-27T12:53:40.026Z,11.73
2022-11-27T12:56:13.953Z,12.67
2022-11-27T12:58:46.413Z,12.53
2022-11-27T13:01:21.381Z,13.23
2022-11-27T13:04:06.816Z,12.73
2022-11-27T13:06:41.452Z,14.70
2022-11-27T13:09:17.096Z,12.73
2022-11-27T13:11:45.470Z,13.00
2022-11-27T13:14:18.167Z,12.47
2022-11-27T13:16:51.525Z,13.37
2022-11-27T13:19:26.562Z,13.83
2022-11-27T13:21:57.406Z,11.17
2022-11-27T13:24:27.824Z,12.97
2022-11-27T13:27:03.386Z,12.97
2022-11-27T13:29:35.641Z,11.37
2022-11-27T13:32:05.357Z,12.53
2022-11-27T13:34:42.966Z,14.27
2022-11-27T13:37:22.999Z,13.47
2022-11-27T13:40:01.293Z,13.20
2022-11-27T13:42:29.485Z,14.23
2022-11-27T13:44:59.547Z,11.10
2022-11-27T13:47:31.752Z,13.27
2022-11-27T13:50:03.170Z,15.43
2022-11-27T13:52:33.905Z,16.83
2022-11-27T13:55:05.451Z,12.00
2022-11-27T13:57:34.385Z,12.33
2022-11-27T14:00:06.704Z,13.30
2022-11-27T14:02:43.078Z,12.33
2022-11-27T14:05:11.658Z,13.17
2022-11-27T14:07:42.811Z,14.67
2022-11-27T14:10:16.923Z,12.30
2022-11-27T14:12:55.257Z,12.60
2022-11-27T14:15:25.554Z,14.53
2022-11-27T14:18:05.464Z,11.40
2022-11-27T14:20:36.572Z,11.40
2022-11-27T14:23:12.179Z,12.93
2022-11-27T14:25:42.664Z,13.63
2022-11-27T14:28:16.126Z,12.60
2022-11-27T14:30:48.240Z,11.23
2022-11-27T14:33:21.591Z,10.67
2022-11-27T14:35:50.680Z,14.90
2022-11-27T14:38:18.593Z,11.50
2022-11-27T14:40:48.382Z,12.00
2022-11-27T14:43:18.309Z,14.03
2022-11-27T14:45:48.289Z,22.63
2022-11-27T14:48:24.855Z,17.60
2022-11-27T14:50:54.586Z,17.47
2022-11-27T14:53:26.452Z,29.07
2022-11-27T14:55:58.723Z,16.67
2022-11-27T14:58:29.006Z,23.77
2022-11-27T15:01:00.491Z,17.40
2022-11-27T15:03:29.812Z,15.20
2022-11-27T15:06:00.520Z,16.40
2022-11-27T15:08:30.709Z,13.57
2022-11-27T15:11:02.021Z,13.00
2022-11-27T15:13:34.536Z,14.37
2022-11-27T15:16:05.987Z,13.60
2022-11-27T15:18:37.252Z,13.27
2022-11-27T15:21:12.698Z,17.07
2022-11-27T15:23:46.099Z,15.53
2022-11-27T15:26:26.995Z,14.27
2022-11-27T15:28:57.366Z,15.53
2022-11-27T15:31:31.191Z,15.20
2022-11-27T15:34:05.385Z,11.17
2022-11-27T15:36:39.656Z,15.63
2022-11-27T15:39:20.773Z,17.83
2022-11-27T15:41:55.319Z,18.53
2022-11-27T15:44:24.272Z,17.07
2022-11-27T15:46:52.869Z,14.50
2022-11-27T15:49:20.788Z,16.03
2022-11-27T15:51:48.731Z,15.00
2022-11-27T15:54:16.757Z,15.17
2022-11-27T15:56:46.877Z,12.17
2022-11-27T15:59:17.056Z,14.60
2022-11-27T16:01:45.013Z,14.10
2022-11-27T16:04:12.936Z,16.77
2022-11-27T16:06:40.776Z,17.37
2022-11-27T16:09:08.782Z,14.70
2022-11-27T16:11:36.685Z,11.87
2022-11-27T16:14:04.781Z,13.60
2022-11-27T16:16:35.234Z,14.17
2022-11-27T16:19:05.516Z,12.77
2022-11-27T16:21:35.680Z,13.97
2022-11-27T16:24:06.688Z,12.57
2022-11-27T16:26:35.106Z,14.00
2022-11-27T16:29:03.250Z,13.87
2022-11-27T16:31:31.144Z,12.33
2022-11-27T16:34:01.941Z,13.07
2022-11-27T16:36:30.771Z,12.60
2022-11-27T16:38:58.611Z,14.47
2022-11-27T16:41:27.112Z,12.83
2022-11-27T16:43:56.946Z,12.33
2022-11-27T16:46:27.313Z,13.03
2022-11-27T16:48:55.925Z,12.07
2022-11-27T16:51:28.535Z,14.33
2022-11-27T16:53:58.255Z,12.13
2022-11-27T16:56:28.817Z,12.43
2022-11-27T16:59:02.636Z,13.70
2022-11-27T17:01:34.385Z,12.50
2022-11-27T17:04:04.816Z,15.83
2022-11-27T17:06:35.188Z,12.77
2022-11-27T17:09:05.561Z,12.37
2022-11-27T17:11:35.934Z,15.10
2022-11-27T17:14:06.244Z,13.30
2022-11-27T17:16:35.072Z,15.97
2022-11-27T17:19:03.765Z,15.80
2022-11-27T17:21:34.558Z,15.17
2022-11-27T17:24:04.215Z,14.73
2022-11-27T17:26:33.748Z,13.63
2022-11-27T17:29:03.424Z,13.67
2022-11-27T17:31:35.488Z,12.90
2022-11-27T17:34:03.642Z,13.37
2022-11-27T17:36:36.797Z,15.13
2022-11-27T17:39:06.636Z,13.67
2022-11-27T17:41:35.242Z,17.17
2022-11-27T17:44:05.276Z,14.97
2022-11-27T17:46:33.849Z,15.13
2022-11-27T17:49:03.369Z,15.13
2022-11-27T17:51:36.254Z,13.63
2022-11-27T17:54:05.624Z,13.90
2022-11-27T17:56:35.060Z,14.17
2022-11-27T17:59:03.315Z,13.03
2022-11-27T18:01:34.552Z,14.17
2022-11-27T18:04:04.759Z,16.50
2022-11-27T18:06:36.032Z,13.10
2022-11-27T18:09:05.678Z,16.70
2022-11-27T18:11:34.804Z,15.47
2022-11-27T18:14:02.857Z,16.83
2022-11-27T18:16:33.712Z,14.57
2022-11-27T18:19:05.566Z,15.77
2022-11-27T18:21:35.447Z,13.23
2022-11-27T18:27:07.768Z,16.03
2022-11-27T18:29:37.678Z,16.27
2022-11-27T18:32:08.545Z,16.20
2022-11-27T18:34:36.827Z,18.70
2022-11-27T18:37:06.812Z,17.53
2022-11-27T18:39:35.592Z,14.90
2022-11-27T18:42:05.090Z,19.40
2022-11-27T18:44:33.348Z,16.73
2022-11-27T18:47:01.386Z,16.07
2022-11-27T18:49:29.326Z,14.63
2022-11-27T18:51:57.182Z,16.47
2022-11-27T18:54:26.486Z,17.50
2022-11-27T18:56:54.356Z,14.80
2022-11-27T18:59:22.780Z,16.67
2022-11-27T19:01:50.999Z,14.30
2022-11-27T19:04:19.514Z,14.10
2022-11-27T19:06:48.049Z,12.17
2022-11-27T19:09:16.526Z,14.47
2022-11-27T19:11:45.836Z,13.13
2022-11-27T19:14:14.110Z,14.80
2022-11-27T19:16:46.638Z,17.33
2022-11-27T19:22:07.808Z,13.30
2022-11-27T19:24:35.901Z,17.27
2022-11-27T19:27:05.296Z,16.53
2022-11-27T19:29:33.662Z,17.70
2022-11-27T19:32:01.609Z,15.97
2022-11-27T19:34:29.892Z,16.60
2022-11-27T19:36:58.546Z,14.93
2022-11-27T19:39:27.231Z,16.67
2022-11-27T19:41:55.167Z,13.37
2022-11-27T19:44:25.091Z,15.73
2022-11-27T19:46:52.913Z,16.37
2022-11-27T19:49:21.463Z,15.60
2022-11-27T19:51:49.857Z,16.40
2022-11-27T19:54:19.325Z,15.20
2022-11-27T19:56:47.780Z,18.03
2022-11-27T19:59:15.894Z,15.83
2022-11-27T20:01:45.174Z,13.60
2022-11-27T20:04:15.314Z,14.93
2022-11-27T20:06:43.372Z,13.90
2022-11-27T20:09:14.029Z,16.37
2022-11-27T20:11:41.914Z,15.80
2022-11-27T20:14:10.192Z,14.03
2022-11-27T20:16:39.031Z,12.40
2022-11-27T20:19:08.293Z,14.90
2022-11-27T20:21:36.792Z,16.27
2022-11-27T20:24:05.493Z,13.50
2022-11-27T20:26:37.116Z,17.57
2022-11-27T20:29:08.234Z,16.53
2022-11-27T20:31:38.042Z,13.37
2022-11-27T20:34:08.314Z,16.57
2022-11-27T20:36:40.427Z,16.23
2022-11-27T20:39:12.986Z,16.70
2022-11-27T20:41:43.039Z,17.13
2022-11-27T20:44:12.316Z,18.07
2022-11-27T20:46:40.206Z,17.87
2022-11-27T20:49:09.712Z,16.23
2022-11-27T20:51:37.949Z,12.77
2022-11-27T20:54:06.479Z,15.23
2022-11-27T20:56:36.011Z,17.47
2022-11-27T20:59:05.116Z,15.33
2022-11-27T21:01:35.433Z,16.27
2022-11-27T21:04:09.371Z,15.40
2022-11-27T21:06:43.835Z,13.77
2022-11-27T21:09:14.130Z,15.93
2022-11-27T21:11:42.422Z,12.73
2022-11-27T21:14:12.925Z,16.80
2022-11-27T21:16:43.238Z,16.60
2022-11-27T21:19:15.819Z,16.57
2022-11-27T21:21:45.645Z,16.40
2022-11-27T21:24:14.413Z,18.03
2022-11-27T21:26:43.231Z,17.60
2022-11-27T21:29:14.473Z,14.53
2022-11-27T21:31:47.465Z,16.77
2022-11-27T21:34:16.434Z,14.17
2022-11-27T21:36:45.749Z,17.97
2022-11-27T21:39:20.422Z,16.30
2022-11-27T21:41:49.792Z,15.67
2022-11-27T21:44:20.714Z,15.37
2022-11-27T21:46:49.134Z,14.80
2022-11-27T21:49:17.938Z,13.27
2022-11-27T21:51:47.566Z,16.53
2022-11-27T21:54:16.020Z,16.57
2022-11-27T21:56:43.937Z,15.20
2022-11-27T21:59:14.296Z,16.07
2022-11-27T22:01:42.355Z,14.47
2022-11-27T22:04:10.260Z,14.87
2022-11-27T22:06:40.039Z,17.37
2022-11-27T22:09:15.064Z,14.90
2022-11-27T22:11:44.758Z,14.90
2022-11-27T22:14:13.078Z,13.73
2022-11-27T22:16:45.276Z,15.53
2022-11-27T22:19:14.330Z,13.23
2022-11-27T22:21:42.461Z,14.70
2022-11-27T22:24:16.852Z,16.07
2022-11-27T22:26:47.240Z,14.27
2022-11-27T22:29:15.077Z,13.23
2022-11-27T22:31:43.098Z,14.13
2022-11-27T22:34:11.012Z,14.63
2022-11-27T22:36:38.875Z,15.47
2022-11-27T22:39:09.083Z,15.23
2022-11-27T22:41:40.581Z,16.63
2022-11-27T22:44:09.503Z,17.00
2022-11-27T22:46:37.920Z,15.70
2022-11-27T22:49:07.399Z,14.87
2022-11-27T22:51:37.220Z,16.60
2022-11-27T22:54:07.882Z,12.73
2022-11-27T22:56:36.305Z,16.53
2022-11-27T22:59:31.015Z,16.10
2022-11-27T23:01:55.333Z,14.57
2022-11-27T23:04:23.224Z,16.47
2022-11-27T23:06:51.026Z,15.43
2022-11-27T23:09:19.578Z,17.20
2022-11-27T23:11:48.257Z,17.20
2022-11-27T23:14:18.141Z,15.27
2022-11-27T23:16:46.233Z,14.50
2022-11-27T23:19:14.127Z,15.23
2022-11-27T23:21:42.294Z,13.63
2022-11-27T23:24:13.401Z,14.57
2022-11-27T23:26:41.233Z,15.17
2022-11-27T23:29:12.027Z,14.83
2022-11-27T23:31:41.737Z,18.67
2022-11-27T23:34:14.294Z,17.17
2022-11-27T23:36:42.354Z,17.67
2022-11-27T23:39:13.288Z,16.10
2022-11-27T23:41:41.763Z,13.53
2022-11-27T23:44:09.747Z,16.17
2022-11-27T23:46:37.606Z,16.50
2022-11-27T23:49:06.908Z,16.53
2022-11-27T23:51:35.047Z,14.47
2022-11-27T23:54:06.839Z,17.60
2022-11-27T23:56:34.701Z,15.93
2022-11-27T23:59:02.509Z,15.00
